Time;durP1;ratioP1;P1;durP2;ratioP2;P2;SDS_P1;SDS_P2;PMS_P1;PMS_P2;Temp;Humidity;BMP_temperature;BMP_pressure;BME280_temperature;BME280_humidity;BME280_pressure;Samples;Min_cycle;Max_cycle;Signal;HPM_P1;HPM_P2
2021/10/05 00:02:23;;;;;;;24.20;14.07;;;;;;;8.93;60.72;100806.33;1743118;82;21073;-42
2021/10/05 00:04:50;;;;;;;20.65;14.15;;;;;;;8.91;60.84;100810.44;1742652;82;21041;-42
2021/10/05 00:07:16;;;;;;;20.32;13.72;;;;;;;8.87;60.91;100811.62;1743187;82;21098;-42
2021/10/05 00:09:43;;;;;;;19.48;13.58;;;;;;;8.83;61.04;100811.22;1742769;82;20989;-42
2021/10/05 00:12:11;;;;;;;17.85;12.63;;;;;;;8.80;61.17;100807.79;1742849;81;21241;-42
2021/10/05 00:14:38;;;;;;;18.40;12.80;;;;;;;8.79;61.28;100803.48;1743200;81;21029;-43
2021/10/05 00:17:05;;;;;;;18.25;12.73;;;;;;;8.80;61.35;100809.95;1751974;81;21013;-42
2021/10/05 00:19:33;;;;;;;23.10;13.58;;;;;;;8.81;61.41;100800.70;1752022;81;21087;-42
2021/10/05 00:21:59;;;;;;;22.80;14.10;;;;;;;8.81;61.49;100807.46;1751979;81;21547;-42
2021/10/05 00:24:26;;;;;;;18.95;12.70;;;;;;;8.78;61.57;100804.04;1751773;81;21056;-42
2021/10/05 00:26:53;;;;;;;22.80;13.78;;;;;;;8.77;61.63;100804.34;1751817;81;21041;-42
2021/10/05 00:29:20;;;;;;;22.80;14.18;;;;;;;8.75;61.68;100806.02;1752075;81;21037;-42
2021/10/05 00:31:47;;;;;;;18.12;13.60;;;;;;;8.73;61.73;100804.97;1751818;81;21131;-42
2021/10/05 00:34:13;;;;;;;23.15;14.83;;;;;;;8.70;61.87;100804.81;1751920;81;21037;-42
2021/10/05 00:36:42;;;;;;;19.23;13.40;;;;;;;8.67;61.95;100806.77;1751979;81;21029;-42
2021/10/05 00:39:08;;;;;;;17.17;13.38;;;;;;;8.65;62.05;100807.09;1746106;81;20985;-42
2021/10/05 00:41:35;;;;;;;17.92;12.45;;;;;;;8.65;62.20;100804.94;1747432;80;21004;-42
2021/10/05 00:44:02;;;;;;;22.45;13.35;;;;;;;8.61;62.26;100811.53;1738784;82;21549;-42
2021/10/05 00:46:29;;;;;;;19.55;12.82;;;;;;;8.59;62.42;100802.92;1738706;82;21055;-42
2021/10/05 00:48:55;;;;;;;19.67;13.50;;;;;;;8.60;62.50;100806.43;1738821;81;21030;-42
2021/10/05 00:51:22;;;;;;;21.10;12.88;;;;;;;8.59;62.62;100809.68;1738850;82;21071;-42
2021/10/05 00:53:49;;;;;;;21.85;14.25;;;;;;;8.60;62.78;100814.53;1738722;82;20992;-42
2021/10/05 00:56:16;;;;;;;22.13;13.45;;;;;;;8.59;62.82;100812.94;1738712;82;21901;-42
2021/10/05 00:58:43;;;;;;;20.35;13.35;;;;;;;8.57;62.93;100812.44;1738495;82;20971;-42
2021/10/05 01:01:10;;;;;;;16.90;12.80;;;;;;;8.54;62.95;100810.36;1738698;82;21510;-42
2021/10/05 01:03:36;;;;;;;19.75;13.45;;;;;;;8.52;63.12;100813.95;1738560;82;21075;-42
2021/10/05 01:06:03;;;;;;;21.50;13.25;;;;;;;8.51;63.23;100819.10;1738697;82;21027;-42
2021/10/05 01:08:31;;;;;;;19.80;12.68;;;;;;;8.52;63.29;100819.35;1738785;82;21126;-42
2021/10/05 01:10:59;;;;;;;18.42;12.82;;;;;;;8.55;63.33;100820.88;1738834;82;21024;-42
2021/10/05 01:13:27;;;;;;;19.12;13.35;;;;;;;8.56;63.34;100824.38;1738566;82;20924;-42
2021/10/05 01:15:54;;;;;;;20.27;13.68;;;;;;;8.55;63.43;100829.53;1748304;81;21267;-42
2021/10/05 01:18:20;;;;;;;20.65;13.25;;;;;;;8.56;63.43;100830.59;1761054;81;21045;-42
2021/10/05 01:20:59;;;;;;;18.87;14.73;;;;;;;8.56;63.42;100825.18;1760194;81;21953;-42
2021/10/05 01:23:26;;;;;;;22.87;14.03;;;;;;;8.56;63.43;100829.78;1728376;83;20964;-42
2021/10/05 01:25:54;;;;;;;21.05;14.28;;;;;;;8.52;63.57;100830.16;1760579;81;20972;-42
2021/10/05 01:28:23;;;;;;;18.80;13.62;;;;;;;8.50;63.80;100831.02;1724102;82;21089;-42
2021/10/05 01:30:50;;;;;;;16.50;13.57;;;;;;;8.51;63.75;100840.17;1747926;82;21052;-42
2021/10/05 01:33:18;;;;;;;21.48;14.07;;;;;;;8.53;63.65;100827.69;1747586;82;21847;-42
2021/10/05 01:35:44;;;;;;;18.12;14.00;;;;;;;8.54;63.64;100831.98;1747606;82;21082;-42
2021/10/05 01:38:10;;;;;;;20.52;13.65;;;;;;;8.52;63.64;100839.63;1747545;82;20969;-42
2021/10/05 01:40:37;;;;;;;21.23;14.40;;;;;;;8.50;63.67;100841.83;1767451;80;21523;-42
2021/10/05 01:43:04;;;;;;;19.20;13.95;;;;;;;8.47;63.71;100845.16;1767949;81;21076;-42
2021/10/05 01:45:31;;;;;;;21.62;14.43;;;;;;;8.42;63.87;100846.09;1760406;81;21742;-42
2021/10/05 01:47:58;;;;;;;24.10;14.23;;;;;;;8.39;64.00;100843.18;1760229;81;20968;-42
2021/10/05 01:50:27;;;;;;;20.80;14.58;;;;;;;8.36;64.12;100847.86;1760490;81;21569;-42
2021/10/05 01:52:54;;;;;;;18.23;13.20;;;;;;;8.30;64.19;100843.13;1760209;81;21247;-42
2021/10/05 01:55:22;;;;;;;24.15;13.98;;;;;;;8.28;64.26;100842.05;1760473;81;21048;-42
2021/10/05 01:57:49;;;;;;;21.10;15.00;;;;;;;8.28;64.37;100842.05;1760234;81;21853;-42
2021/10/05 02:00:16;;;;;;;24.67;14.78;;;;;;;8.28;64.38;100843.40;1760414;81;20920;-42
2021/10/05 02:02:42;;;;;;;20.43;14.68;;;;;;;8.27;64.44;100851.83;1760291;81;21043;-42
2021/10/05 02:05:09;;;;;;;23.87;15.10;;;;;;;8.26;64.55;100852.94;1760179;81;21048;-42
2021/10/05 02:07:36;;;;;;;26.45;16.10;;;;;;;8.24;64.58;100855.93;1760203;80;21828;-42
2021/10/05 02:10:06;;;;;;;22.07;15.43;;;;;;;8.21;64.71;100857.91;1760250;81;21146;-42
2021/10/05 02:12:33;;;;;;;;;;;;;;;8.21;64.73;100856.55;1762928;81;21313;-42
2021/10/05 02:14:59;;;;;;;21.33;14.60;;;;;;;8.20;64.65;100863.06;1751086;82;20157;-42
2021/10/05 02:17:26;;;;;;;27.77;15.93;;;;;;;8.10;64.85;100863.30;1723510;82;21042;-42
2021/10/05 02:19:52;;;;;;;28.15;16.02;;;;;;;8.11;64.87;100866.25;1742955;82;21070;-42
2021/10/05 02:22:18;;;;;;;23.73;14.85;;;;;;;8.14;64.95;100866.98;1742904;82;21737;-42
2021/10/05 02:24:46;;;;;;;22.48;15.60;;;;;;;8.17;64.96;100869.09;1742610;82;20981;-42
2021/10/05 02:27:16;;;;;;;27.55;15.65;;;;;;;8.17;64.99;100877.19;1742909;82;21044;-42
2021/10/05 02:29:43;;;;;;;20.48;15.25;;;;;;;8.18;64.99;100872.01;1743129;82;21066;-42
2021/10/05 02:32:11;;;;;;;24.60;16.30;;;;;;;8.19;64.96;100880.37;1742753;82;21093;-42
2021/10/05 02:34:37;;;;;;;24.12;16.30;;;;;;;8.16;65.01;100879.64;1742850;82;21963;-42
2021/10/05 02:37:05;;;;;;;25.12;16.67;;;;;;;8.14;65.10;100881.03;1742808;82;21614;-42
2021/10/05 02:39:34;;;;;;;21.93;16.07;;;;;;;8.11;65.19;100882.45;1742944;82;21480;-42
2021/10/05 02:42:01;;;;;;;23.10;16.12;;;;;;;8.08;65.33;100878.23;1753706;81;21046;-42
2021/10/05 02:44:27;;;;;;;24.15;16.32;;;;;;;8.09;65.43;100877.09;1753451;81;21018;-42
2021/10/05 02:46:54;;;;;;;23.18;16.10;;;;;;;8.10;65.44;100878.70;1742777;82;21122;-42
2021/10/05 02:49:20;;;;;;;22.45;16.77;;;;;;;8.09;65.40;100877.90;1742757;82;21033;-42
2021/10/05 02:51:47;;;;;;;21.12;16.65;;;;;;;8.08;65.51;100873.63;1724947;82;20998;-42
2021/10/05 02:54:13;;;;;;;25.02;16.97;;;;;;;8.04;65.52;100872.61;1713147;83;21100;-42
2021/10/05 02:56:40;;;;;;;27.42;17.55;;;;;;;8.04;65.62;100877.22;1713146;83;21049;-42
2021/10/05 02:59:06;;;;;;;28.20;17.85;;;;;;;8.02;65.65;100874.84;1713497;83;21139;-42
2021/10/05 03:01:33;;;;;;;21.07;16.00;;;;;;;8.01;65.75;100880.53;1713254;83;21496;-42
2021/10/05 03:04:00;;;;;;;23.50;16.60;;;;;;;8.01;65.75;100875.13;1713237;83;21515;-42
2021/10/05 03:06:26;;;;;;;22.07;16.80;;;;;;;8.00;65.82;100877.03;1713334;83;20981;-42
2021/10/05 03:08:54;;;;;;;24.40;15.75;;;;;;;8.01;65.87;100879.19;1713192;83;21578;-42
2021/10/05 03:11:21;;;;;;;20.80;16.23;;;;;;;8.01;65.91;100881.34;1713644;83;21129;-43
2021/10/05 03:13:48;;;;;;;27.00;17.35;;;;;;;7.99;66.09;100880.83;1712897;83;21038;-42
2021/10/05 03:16:15;;;;;;;24.25;17.17;;;;;;;7.89;66.17;100864.08;1715772;83;20957;-42
2021/10/05 03:18:42;;;;;;;26.60;18.02;;;;;;;7.97;66.24;100871.45;1721814;83;21603;-42
2021/10/05 03:21:09;;;;;;;25.95;17.48;;;;;;;7.98;66.26;100877.91;1721928;83;21060;-42
2021/10/05 03:23:38;;;;;;;24.15;16.60;;;;;;;7.97;66.36;100874.95;1721926;83;21062;-42
2021/10/05 03:26:05;;;;;;;24.45;16.55;;;;;;;7.98;66.29;100884.66;1721836;83;20975;-42
2021/10/05 03:28:32;;;;;;;27.30;17.52;;;;;;;7.99;66.28;100882.18;1721806;83;21023;-42
2021/10/05 03:30:59;;;;;;;24.92;15.83;;;;;;;8.01;66.22;100879.19;1722104;83;21410;-42
2021/10/05 03:33:26;;;;;;;24.27;16.75;;;;;;;8.01;66.22;100884.04;1721894;83;21080;-42
2021/10/05 03:35:53;;;;;;;27.02;16.77;;;;;;;8.02;66.20;100880.24;1721771;83;21151;-42
2021/10/05 03:38:20;;;;;;;30.80;17.70;;;;;;;8.03;66.14;100875.64;1721801;83;21020;-42
2021/10/05 03:40:46;;;;;;;26.30;17.57;;;;;;;8.01;66.23;100879.98;1743111;81;21535;-42
2021/10/05 03:43:13;;;;;;;23.85;16.95;;;;;;;7.99;66.20;100884.88;1751901;81;21348;-42
2021/10/05 03:45:40;;;;;;;27.02;18.07;;;;;;;7.99;66.21;100886.81;1751880;81;21582;-42
2021/10/05 03:48:06;;;;;;;26.15;17.25;;;;;;;7.97;66.23;100887.11;1751913;81;21120;-42
2021/10/05 03:50:34;;;;;;;25.15;16.70;;;;;;;7.96;66.25;100889.55;1751734;81;21012;-43
2021/10/05 03:53:00;;;;;;;28.27;17.17;;;;;;;7.96;66.22;100891.45;1751815;81;21032;-42
2021/10/05 03:55:27;;;;;;;27.42;17.60;;;;;;;7.94;66.31;100893.09;1751829;81;20906;-42
2021/10/05 03:57:53;;;;;;;25.08;17.57;;;;;;;7.92;66.46;100892.62;1751880;81;21036;-42
2021/10/05 04:00:20;;;;;;;28.75;17.67;;;;;;;7.91;66.52;100891.02;1751873;81;21130;-42
2021/10/05 04:02:46;;;;;;;27.40;17.30;;;;;;;7.93;66.51;100897.47;1751794;81;20921;-42
2021/10/05 04:05:13;;;;;;;28.25;18.15;;;;;;;7.91;66.58;100892.36;1751857;81;21041;-42
2021/10/05 04:07:40;;;;;;;29.52;17.70;;;;;;;7.90;66.61;100900.76;1751833;81;21048;-42
2021/10/05 04:10:08;;;;;;;26.80;16.77;;;;;;;7.87;66.59;100903.53;1751816;81;21033;-42
2021/10/05 04:12:35;;;;;;;25.45;16.60;;;;;;;7.84;66.63;100909.55;1751909;81;21132;-42
2021/10/05 04:15:02;;;;;;;33.08;18.45;;;;;;;7.83;66.67;100909.30;1751763;81;21508;-42
2021/10/05 04:17:29;;;;;;;22.85;16.52;;;;;;;7.84;66.70;100914.95;1749578;81;21061;-42
2021/10/05 04:19:56;;;;;;;23.20;15.95;;;;;;;7.86;66.65;100920.28;1745806;81;21051;-42
2021/10/05 04:22:23;;;;;;;26.62;17.20;;;;;;;7.89;66.58;100925.61;1719617;83;21041;-42
2021/10/05 04:24:50;;;;;;;24.95;17.52;;;;;;;7.90;66.61;100925.06;1719581;83;21822;-42
2021/10/05 04:27:17;;;;;;;28.42;17.02;;;;;;;7.89;66.66;100929.66;1719603;83;21013;-42
2021/10/05 04:31:28;;;;;;;31.05;17.85;;;;;;;7.96;66.62;100927.36;1836157;78;22645;-41
2021/10/05 04:33:55;;;;;;;26.77;17.27;;;;;;;7.84;66.69;100930.57;1805932;79;21027;-41
2021/10/05 04:36:21;;;;;;;31.12;17.02;;;;;;;7.81;66.80;100928.48;1805946;79;21091;-41
2021/10/05 04:38:49;;;;;;;27.35;16.90;;;;;;;7.83;66.84;100938.99;1805969;79;20916;-41
2021/10/05 04:41:15;;;;;;;25.57;16.60;;;;;;;7.84;66.83;100935.97;1757616;79;21029;-41
2021/10/05 04:43:42;;;;;;;29.82;17.07;;;;;;;7.87;66.93;100931.88;1752978;81;21008;-41
2021/10/05 04:46:09;;;;;;;26.48;17.80;;;;;;;7.89;66.94;100933.71;1753293;81;21551;-41
2021/10/05 04:48:35;;;;;;;28.00;17.05;;;;;;;7.90;66.97;100932.61;1752921;81;21140;-41
2021/10/05 04:51:02;;;;;;;32.00;18.17;;;;;;;7.89;66.98;100936.41;1753125;81;21582;-41
2021/10/05 04:53:29;;;;;;;33.23;18.75;;;;;;;7.88;67.09;100941.59;1753094;81;20960;-41
2021/10/05 04:55:55;;;;;;;27.77;19.07;;;;;;;7.90;67.18;100945.31;1752981;81;21084;-41
2021/10/05 04:58:22;;;;;;;26.23;18.75;;;;;;;7.94;67.27;100950.38;1753111;81;21020;-41
2021/10/05 05:00:50;;;;;;;29.72;17.75;;;;;;;7.97;67.25;100957.87;1752983;81;21096;-41
2021/10/05 05:03:17;;;;;;;30.20;18.80;;;;;;;7.98;67.31;100955.42;1753308;81;21196;-41
2021/10/05 05:05:44;;;;;;;28.92;17.07;;;;;;;8.01;67.41;100959.66;1753130;81;20953;-41
2021/10/05 05:08:12;;;;;;;22.85;16.48;;;;;;;8.04;67.42;100959.59;1752991;81;21633;-41
2021/10/05 05:10:39;;;;;;;25.85;18.23;;;;;;;8.08;67.38;100957.91;1753092;81;21075;-41
2021/10/05 05:13:06;;;;;;;27.55;17.98;;;;;;;8.10;67.37;100961.89;1753220;81;21944;-41
2021/10/05 05:15:33;;;;;;;25.57;17.52;;;;;;;8.12;67.41;100958.89;1752837;81;21008;-41
2021/10/05 05:17:59;;;;;;;26.10;17.55;;;;;;;8.15;67.41;100968.53;1753161;81;20926;-41
2021/10/05 05:20:26;;;;;;;25.10;17.27;;;;;;;8.17;67.47;100965.53;1753031;81;21004;-41
2021/10/05 05:22:53;;;;;;;22.75;17.15;;;;;;;8.21;67.44;100967.32;1752926;81;20993;-41
2021/10/05 05:25:22;;;;;;;27.15;17.23;;;;;;;8.26;67.38;100976.67;1752979;81;21120;-41
2021/10/05 05:27:48;;;;;;;26.50;17.73;;;;;;;8.27;67.43;100979.63;1752949;81;21017;-41
2021/10/05 05:30:15;;;;;;;22.48;16.60;;;;;;;8.29;67.50;100978.78;1749033;81;21006;-41
2021/10/05 05:32:42;;;;;;;24.87;16.62;;;;;;;8.33;67.61;100976.84;1742570;82;20942;-41
2021/10/05 05:35:09;;;;;;;30.62;18.02;;;;;;;8.39;67.69;100976.40;1742672;82;21034;-41
2021/10/05 05:37:35;;;;;;;27.42;17.80;;;;;;;8.49;67.60;100974.02;1742549;82;21096;-41
2021/10/05 05:40:03;;;;;;;28.32;17.60;;;;;;;8.54;67.50;100980.66;1742666;81;21025;-41
2021/10/05 05:42:30;;;;;;;28.23;19.50;;;;;;;8.59;67.50;100977.28;1742324;82;20921;-41
2021/10/05 05:44:56;;;;;;;29.65;17.80;;;;;;;8.64;67.36;100977.72;1742121;82;21052;-41
2021/10/05 05:47:23;;;;;;;26.23;17.32;;;;;;;8.67;67.40;100985.20;1741932;82;20973;-41
2021/10/05 05:49:51;;;;;;;26.52;17.65;;;;;;;8.74;67.38;100990.99;1742152;82;21140;-41
2021/10/05 05:52:18;;;;;;;26.40;17.67;;;;;;;8.81;67.36;100994.05;1742040;82;20969;-41
2021/10/05 05:54:45;;;;;;;26.37;18.17;;;;;;;8.89;67.22;100999.29;1742094;82;20965;-41
2021/10/05 05:57:12;;;;;;;28.62;18.30;;;;;;;8.96;67.11;100996.38;1742073;82;21037;-41
2021/10/05 05:59:39;;;;;;;31.35;17.20;;;;;;;9.04;66.94;101003.77;1742150;82;21049;-41
2021/10/05 06:02:06;;;;;;;27.40;19.05;;;;;;;9.09;66.82;101005.00;1742225;82;21590;-41
2021/10/05 06:04:33;;;;;;;29.05;17.73;;;;;;;9.12;66.70;101011.69;1742178;82;20930;-41
2021/10/05 06:06:59;;;;;;;27.37;17.62;;;;;;;9.14;66.69;101017.05;1741885;82;20961;-41
2021/10/05 06:09:26;;;;;;;29.50;18.90;;;;;;;9.20;66.61;101014.22;1742154;82;21578;-41
2021/10/05 06:12:00;;;;;;;24.18;17.75;;;;;;;9.25;66.50;101020.27;1742063;82;21092;-41
2021/10/05 06:14:26;;;;;;;29.27;18.55;;;;;;;9.28;66.54;101009.39;1741814;81;21358;-41
2021/10/05 06:16:49;;;;;;;33.20;19.10;;;;;;;9.34;66.45;101011.67;1741711;81;20965;-41
2021/10/05 06:19:16;;;;;;;30.50;20.68;;;;;;;9.40;66.37;101015.81;1742181;82;21028;-41
2021/10/05 06:21:44;;;;;;;26.87;18.90;;;;;;;9.44;66.41;101019.50;1742106;81;21025;-41
2021/10/05 06:24:10;;;;;;;30.80;20.00;;;;;;;9.49;66.30;101015.30;1741983;82;21033;-41
2021/10/05 06:26:38;;;;;;;29.80;18.82;;;;;;;9.55;66.37;101020.03;1742108;82;21271;-41
2021/10/05 06:29:04;;;;;;;29.70;18.55;;;;;;;9.63;66.24;101017.94;1741977;81;20950;-41
2021/10/05 06:31:31;;;;;;;26.82;18.62;;;;;;;9.70;65.96;101010.14;1754076;81;21102;-41
2021/10/05 06:33:58;;;;;;;29.63;19.65;;;;;;;9.77;65.91;101017.27;1758170;81;21007;-41
2021/10/05 06:36:26;;;;;;;28.62;18.62;;;;;;;9.83;65.77;101025.47;1758072;81;21586;-41
2021/10/05 06:38:53;;;;;;;26.75;18.57;;;;;;;9.90;65.46;101017.70;1758095;81;21137;-41
2021/10/05 06:41:19;;;;;;;27.73;18.95;;;;;;;9.96;65.35;101027.30;1758003;80;20991;-41
2021/10/05 06:43:46;;;;;;;27.80;17.75;;;;;;;9.98;65.28;101022.34;1757963;81;21071;-41
2021/10/05 06:46:12;;;;;;;28.20;18.55;;;;;;;10.04;65.32;101029.22;1758021;81;21515;-41
2021/10/05 06:48:39;;;;;;;24.50;17.25;;;;;;;10.09;65.32;101033.69;1757927;81;21009;-41
2021/10/05 06:51:06;;;;;;;26.68;19.75;;;;;;;10.17;65.37;101033.48;1758157;81;21182;-41
2021/10/05 06:53:32;;;;;;;27.10;17.12;;;;;;;10.26;65.14;101037.04;1766628;78;21056;-41
2021/10/05 06:55:59;;;;;;;25.72;17.62;;;;;;;10.37;65.05;101037.76;1789253;79;21016;-41
2021/10/05 06:58:26;;;;;;;28.92;17.65;;;;;;;10.49;64.79;101034.43;1789384;79;21020;-41
2021/10/05 07:00:52;;;;;;;24.60;18.23;;;;;;;10.59;64.40;101038.19;1789333;80;21052;-41
2021/10/05 07:03:19;;;;;;;28.05;18.20;;;;;;;10.68;64.34;101036.83;1789466;80;21767;-41
2021/10/05 07:05:45;;;;;;;25.72;17.48;;;;;;;10.76;64.12;101038.18;1789235;79;20925;-41
2021/10/05 07:08:12;;;;;;;28.02;19.32;;;;;;;10.87;63.90;101040.02;1789333;80;21011;-41
2021/10/05 07:10:39;;;;;;;25.97;18.62;;;;;;;10.96;63.55;101045.44;1789104;80;21013;-41
2021/10/05 07:13:06;;;;;;;28.27;18.42;;;;;;;11.07;63.50;101046.70;1789434;80;21004;-42
2021/10/05 07:15:33;;;;;;;23.70;17.23;;;;;;;11.17;63.27;101043.66;1789379;80;21113;-41
2021/10/05 07:18:00;;;;;;;24.45;18.15;;;;;;;11.28;62.99;101046.25;1789055;80;20996;-41
2021/10/05 07:20:29;;;;;;;28.17;17.25;;;;;;;11.40;62.56;101046.40;1789296;80;21526;-41
2021/10/05 07:22:56;;;;;;;23.85;17.35;;;;;;;11.53;62.16;101054.09;1789113;79;21737;-41
2021/10/05 07:25:23;;;;;;;23.57;17.37;;;;;;;11.68;61.83;101051.66;1789352;80;21578;-41
2021/10/05 07:27:51;;;;;;;28.10;17.23;;;;;;;11.81;61.67;101052.61;1789492;80;21546;-41
2021/10/05 07:30:23;;;;;;;25.32;17.07;;;;;;;11.95;61.13;101057.27;1787344;80;20992;-42
2021/10/05 07:32:56;;;;;;;24.85;16.70;;;;;;;12.08;60.74;101054.88;1772684;81;20954;-41
2021/10/05 07:35:23;;;;;;;24.95;16.60;;;;;;;12.19;60.41;101055.30;1772762;79;21033;-41
2021/10/05 07:37:49;;;;;;;27.27;16.45;;;;;;;12.31;59.94;101057.29;1772750;81;21360;-41
2021/10/05 07:40:18;;;;;;;26.02;17.55;;;;;;;12.38;59.93;101055.66;1772608;79;21155;-41
2021/10/05 07:42:45;;;;;;;26.97;16.65;;;;;;;12.46;59.38;101053.44;1772832;79;21468;-41
2021/10/05 07:45:11;;;;;;;23.45;16.85;;;;;;;12.53;59.04;101049.64;1772656;81;21016;-42
2021/10/05 07:47:38;;;;;;;23.15;16.75;;;;;;;12.60;58.87;101052.61;1772728;81;21471;-41
2021/10/05 07:50:06;;;;;;;23.57;16.65;;;;;;;12.71;58.78;101051.66;1772923;81;21081;-41
2021/10/05 07:52:34;;;;;;;23.42;16.25;;;;;;;12.80;58.16;101040.69;1772745;81;21106;-41
2021/10/05 07:55:00;;;;;;;24.25;16.40;;;;;;;12.87;57.86;101047.20;1772697;81;21499;-41
2021/10/05 07:57:27;;;;;;;25.48;16.10;;;;;;;12.98;57.59;101046.20;1772823;81;20938;-42
2021/10/05 07:59:53;;;;;;;23.35;16.17;;;;;;;13.07;57.41;101049.64;1772791;80;21009;-41
2021/10/05 08:02:20;;;;;;;27.42;16.37;;;;;;;13.17;57.10;101051.98;1772770;81;21005;-42
2021/10/05 08:04:47;;;;;;;22.13;14.15;;;;;;;13.26;56.52;101050.00;1773025;81;21477;-41
2021/10/05 08:07:13;;;;;;;19.35;14.43;;;;;;;13.33;56.24;101052.95;1769603;81;20945;-42
2021/10/05 08:09:40;;;;;;;22.98;15.05;;;;;;;13.41;55.97;101045.23;1766372;81;21028;-41
2021/10/05 08:12:08;;;;;;;21.65;15.32;;;;;;;13.51;55.85;101052.78;1766463;81;20973;-42
2021/10/05 08:14:34;;;;;;;22.07;15.32;;;;;;;13.63;55.90;101056.31;1766531;81;21012;-42
2021/10/05 08:17:03;;;;;;;20.45;15.38;;;;;;;13.77;55.80;101051.89;1766487;81;21054;-42
2021/10/05 08:19:29;;;;;;;22.50;15.20;;;;;;;13.92;54.86;101052.59;1766342;81;21020;-42
2021/10/05 08:21:56;;;;;;;25.68;14.83;;;;;;;14.04;54.27;101056.66;1766148;81;20925;-42
2021/10/05 08:24:23;;;;;;;20.82;13.43;;;;;;;14.14;53.88;101052.69;1766360;81;21519;-42
2021/10/05 08:26:49;;;;;;;18.77;13.53;;;;;;;14.25;53.38;101050.52;1766462;81;21020;-42
2021/10/05 08:29:18;;;;;;;20.00;13.20;;;;;;;14.38;52.95;101062.83;1766547;81;21086;-42
2021/10/05 08:31:48;;;;;;;20.02;13.40;;;;;;;14.48;52.63;101059.61;1775673;80;21008;-42
2021/10/05 08:34:15;;;;;;;;;;;;;;;14.60;52.62;101054.14;1786100;80;20968;-42
2021/10/05 08:36:42;;;;;;;22.17;15.55;;;;;;;14.72;52.03;101055.45;1783079;80;20187;-42
2021/10/05 08:39:10;;;;;;;26.82;15.85;;;;;;;14.72;52.15;101050.80;1783146;80;21098;-42
2021/10/05 08:41:38;;;;;;;24.98;16.32;;;;;;;14.90;52.25;101057.35;1783046;80;21814;-42
2021/10/05 08:44:04;;;;;;;26.95;15.48;;;;;;;15.02;51.84;101055.92;1783169;80;21015;-41
2021/10/05 08:46:37;;;;;;;22.50;16.07;;;;;;;15.13;51.47;101046.09;1783201;80;20992;-42
2021/10/05 08:49:05;;;;;;;26.35;15.23;;;;;;;15.27;51.49;101045.68;1783034;80;21033;-42
2021/10/05 08:51:33;;;;;;;23.92;14.07;;;;;;;15.43;50.46;101050.61;1783124;80;21036;-42
2021/10/05 08:53:59;;;;;;;22.42;14.80;;;;;;;15.57;49.83;101045.54;1783118;80;21789;-42
2021/10/05 08:56:26;;;;;;;23.05;14.10;;;;;;;15.70;49.69;101047.60;1782972;79;21023;-42
2021/10/05 08:58:53;;;;;;;20.82;14.30;;;;;;;15.81;49.10;101056.88;1783222;80;20947;-42
2021/10/05 09:01:19;;;;;;;20.20;13.50;;;;;;;15.93;49.53;101047.19;1783299;80;20980;-42
2021/10/05 09:03:54;;;;;;;16.97;13.40;;;;;;;16.12;48.72;101054.70;1783100;80;21035;-42
2021/10/05 09:06:22;;;;;;;19.05;13.45;;;;;;;16.25;47.83;101053.43;1783119;80;21898;-42
2021/10/05 09:08:50;;;;;;;17.62;13.32;;;;;;;16.35;47.32;101055.62;1783171;80;21048;-42
2021/10/05 09:11:19;;;;;;;16.65;12.58;;;;;;;16.44;47.51;101047.43;1782984;80;21597;-43
2021/10/05 09:13:51;;;;;;;21.12;13.95;;;;;;;16.58;47.36;101044.23;1783240;79;21090;-42
2021/10/05 09:16:24;;;;;;;17.87;12.05;;;;;;;16.70;46.65;101040.58;1783094;80;21071;-42
2021/10/05 09:19:01;;;;;;;19.42;13.20;;;;;;;16.76;46.59;101033.64;1783435;80;21727;-42
2021/10/05 09:21:38;;;;;;;16.80;12.37;;;;;;;16.83;45.80;101048.29;1783229;80;20928;-42
2021/10/05 09:24:09;;;;;;;21.68;11.57;;;;;;;16.91;46.02;101047.27;1783223;80;21028;-42
2021/10/05 09:26:49;;;;;;;22.22;12.10;;;;;;;17.04;45.00;101039.67;1783014;80;20944;-42
2021/10/05 09:29:23;;;;;;;16.32;11.80;;;;;;;17.15;44.78;101035.78;1782949;80;21360;-42
2021/10/05 09:32:03;;;;;;;13.05;10.55;;;;;;;17.22;44.37;101038.66;1783199;79;21022;-43
2021/10/05 09:34:36;;;;;;;;;;;;;;;17.30;44.29;101038.42;1786073;80;20979;-42
2021/10/05 09:37:16;;;;;;;13.65;10.03;;;;;;;17.42;44.18;101041.59;1783341;80;20222;-43
2021/10/05 09:39:57;;;;;;;14.53;9.38;;;;;;;17.46;43.51;101045.18;1783166;79;20972;-42
2021/10/05 09:42:36;;;;;;;14.10;8.70;;;;;;;17.57;42.93;101039.28;1770114;80;21585;-43
2021/10/05 09:45:06;;;;;;;11.70;8.88;;;;;;;17.67;42.37;101042.81;1783357;80;21153;-43
2021/10/05 09:47:41;;;;;;;13.65;9.35;;;;;;;17.80;41.57;101046.19;1783371;79;21036;-42
2021/10/05 09:50:22;;;;;;;12.55;8.70;;;;;;;17.92;40.71;101043.80;1782783;80;21609;-43
2021/10/05 09:52:52;;;;;;;11.53;8.73;;;;;;;18.01;40.82;101051.23;1783201;80;20984;-43
2021/10/05 09:55:23;;;;;;;11.38;9.48;;;;;;;18.11;40.90;101050.58;1783323;80;21027;-43
2021/10/05 09:57:51;;;;;;;16.48;9.33;;;;;;;18.25;41.04;101048.04;1782488;80;21094;-43
2021/10/05 10:00:19;;;;;;;12.80;8.83;;;;;;;18.32;40.15;101048.16;1783123;80;20944;-43
2021/10/05 10:02:47;;;;;;;12.98;8.63;;;;;;;18.41;39.90;101040.44;1783579;80;20940;-43
2021/10/05 10:05:21;;;;;;;13.08;9.58;;;;;;;18.55;39.76;101043.98;1783237;80;21059;-42
2021/10/05 10:07:51;;;;;;;14.43;8.93;;;;;;;18.69;39.09;101039.28;1783415;79;21044;-43
2021/10/05 10:10:26;;;;;;;13.72;8.78;;;;;;;18.84;39.17;101036.89;1783259;80;21168;-43
2021/10/05 10:12:58;;;;;;;13.40;9.55;;;;;;;18.94;38.90;101028.77;1783289;79;21055;-43
2021/10/05 10:15:31;;;;;;;14.07;9.80;;;;;;;19.03;38.15;101033.39;1783113;80;21044;-43
2021/10/05 10:18:09;;;;;;;12.53;8.65;;;;;;;19.11;38.19;101026.03;1783347;80;21466;-43
2021/10/05 10:20:39;;;;;;;14.70;10.28;;;;;;;19.18;38.55;101021.17;1773701;80;21032;-43
2021/10/05 10:23:25;;;;;;;10.82;8.70;;;;;;;19.31;38.45;101020.55;1783617;80;21163;-43
2021/10/05 10:25:56;;;;;;;8.83;7.92;;;;;;;19.45;37.85;101017.16;1782975;79;21007;-43
2021/10/05 10:28:26;;;;;;;10.88;8.63;;;;;;;19.60;37.05;101005.70;1783520;80;20932;-43
2021/10/05 10:30:55;;;;;;;;;;;;;;;19.70;37.24;101007.75;1785970;80;21076;-43
2021/10/05 10:33:23;;;;;;;12.73;8.00;;;;;;;19.81;36.83;101014.11;1744882;79;20189;-43
2021/10/05 10:35:53;;;;;;;12.75;7.83;;;;;;;19.79;36.05;101009.59;1735930;82;21128;-43
2021/10/05 10:38:29;;;;;;;10.10;7.62;;;;;;;19.89;35.46;101002.00;1736175;82;21088;-43
2021/10/05 10:40:57;;;;;;;10.23;7.55;;;;;;;19.96;35.88;101001.45;1759856;81;21326;-43
2021/10/05 10:43:27;;;;;;;9.95;6.72;;;;;;;20.07;35.17;101005.66;1766574;81;21667;-43
2021/10/05 10:46:00;;;;;;;10.72;8.03;;;;;;;20.17;34.57;101004.94;1766823;81;21056;-43
2021/10/05 10:48:37;;;;;;;10.68;7.05;;;;;;;20.25;34.31;101002.42;1766566;81;21095;-43
2021/10/05 10:51:17;;;;;;;10.90;7.67;;;;;;;20.29;34.76;101002.43;1766590;81;21006;-43
2021/10/05 10:53:45;;;;;;;11.40;6.92;;;;;;;20.23;34.54;101003.41;1766630;81;21031;-43
2021/10/05 10:56:17;;;;;;;7.62;6.62;;;;;;;20.19;35.16;100999.81;1766659;81;21382;-43
2021/10/05 10:58:45;;;;;;;12.15;7.30;;;;;;;20.20;34.97;100995.89;1764927;81;21029;-43
2021/10/05 11:01:15;;;;;;;11.88;7.72;;;;;;;20.24;34.85;100995.33;1766492;81;21311;-43
2021/10/05 11:03:42;;;;;;;9.75;7.67;;;;;;;20.24;34.17;100995.33;1766479;81;21554;-43
2021/10/05 11:06:16;;;;;;;11.15;6.92;;;;;;;20.24;34.09;100990.40;1766535;81;20945;-43
2021/10/05 11:08:54;;;;;;;9.43;7.42;;;;;;;20.28;34.38;100982.97;1766568;81;20902;-43
2021/10/05 11:11:37;;;;;;;10.13;7.58;;;;;;;20.32;34.61;100977.71;1766527;81;21006;-43
2021/10/05 11:14:08;;;;;;;12.35;8.15;;;;;;;20.23;34.24;100975.08;1766581;81;21109;-43
2021/10/05 11:16:37;;;;;;;10.82;7.28;;;;;;;20.08;34.68;100984.42;1766426;81;21008;-43
2021/10/05 11:19:19;;;;;;;11.18;7.83;;;;;;;20.01;34.83;100975.52;1766462;81;21036;-43
2021/10/05 11:21:45;;;;;;;11.38;7.28;;;;;;;19.99;34.55;100966.88;1765065;81;21072;-43
2021/10/05 11:24:14;;;;;;;13.22;7.22;;;;;;;19.98;34.70;100964.50;1766916;81;21080;-43